Lyndhurst, New Jersey
Current Conditions -  °F | °C
As of 1:51 PM on Saturday 25 Oct 2014 (Local Time) from KTEB Reporting Station
Clear Clear  
Wind Chill: 66°   Ceiling: Unl
Heat Index: 66°   Visibility: 10mi
Dew Point: 41°   Wind: 7mph
Humidity: 40%   Direction: 280°W
Pressure: 29.72"   Gusts: NA
Location:  40.81°N, 74.12°W
Report Text: KTEB 251751Z 28006KT 10SM CLR 19/05 A2972 RMK AO2 SLP064 T01890050 10194 20067 58039
Loading
Personal Weather Stations






























Interactive Weather Map
Tropical Storm Tracking
New forecast layout! Learn more

10-Day Weather Forecast

Advertisements
Track Severe Weather on mobile